sensor_id;sensor_type;location;lat;lon;timestamp;pressure;altitude;pressure_sealevel;temperature;humidity
6565;BME280;3316;44.118;27.258;2023-11-18T00:02:23;100128.25;;;9.57;100.00
6565;BME280;3316;44.118;27.258;2023-11-18T00:04:50;100096.28;;;9.28;100.00
6565;BME280;3316;44.118;27.258;2023-11-18T00:07:15;100109.38;;;9.32;100.00
6565;BME280;3316;44.118;27.258;2023-11-18T00:09:40;100158.00;;;9.59;100.00
6565;BME280;3316;44.118;27.258;2023-11-18T00:12:08;100151.94;;;9.52;100.00
6565;BME280;3316;44.118;27.258;2023-11-18T00:14:33;100132.78;;;9.47;100.00
6565;BME280;3316;44.118;27.258;2023-11-18T00:16:58;100139.75;;;9.48;100.00
6565;BME280;3316;44.118;27.258;2023-11-18T00:19:24;100129.34;;;9.44;100.00
6565;BME280;3316;44.118;27.258;2023-11-18T00:21:49;100145.00;;;9.48;100.00
6565;BME280;3316;44.118;27.258;2023-11-18T00:24:15;100123.31;;;9.36;100.00
6565;BME280;3316;44.118;27.258;2023-11-18T00:26:40;100124.94;;;9.43;100.00
6565;BME280;3316;44.118;27.258;2023-11-18T00:29:06;100131.09;;;9.40;100.00
6565;BME280;3316;44.118;27.258;2023-11-18T00:31:31;100140.59;;;9.50;100.00
6565;BME280;3316;44.118;27.258;2023-11-18T00:33:57;100139.72;;;9.50;100.00
6565;BME280;3316;44.118;27.258;2023-11-18T00:36:22;100161.50;;;9.58;100.00
6565;BME280;3316;44.118;27.258;2023-11-18T00:38:47;100155.47;;;9.50;100.00
6565;BME280;3316;44.118;27.258;2023-11-18T00:41:14;100170.34;;;9.51;100.00
6565;BME280;3316;44.118;27.258;2023-11-18T00:43:39;100122.38;;;9.38;100.00
6565;BME280;3316;44.118;27.258;2023-11-18T00:46:05;100146.69;;;9.52;100.00
6565;BME280;3316;44.118;27.258;2023-11-18T00:48:30;100160.66;;;9.56;100.00
6565;BME280;3316;44.118;27.258;2023-11-18T00:50:56;100158.94;;;9.55;100.00
6565;BME280;3316;44.118;27.258;2023-11-18T00:53:22;100159.91;;;9.48;100.00
6565;BME280;3316;44.118;27.258;2023-11-18T00:55:47;100157.31;;;9.45;100.00
6565;BME280;3316;44.118;27.258;2023-11-18T00:58:14;100158.16;;;9.47;100.00
6565;BME280;3316;44.118;27.258;2023-11-18T01:00:39;100157.28;;;9.46;100.00
6565;BME280;3316;44.118;27.258;2023-11-18T01:03:04;100137.38;;;9.32;100.00
6565;BME280;3316;44.118;27.258;2023-11-18T01:05:30;100143.34;;;9.43;100.00
6565;BME280;3316;44.118;27.258;2023-11-18T01:07:57;100143.31;;;9.46;100.00
6565;BME280;3316;44.118;27.258;2023-11-18T01:10:22;100126.78;;;9.38;100.00
6565;BME280;3316;44.118;27.258;2023-11-18T01:12:48;100141.59;;;9.42;100.00
6565;BME280;3316;44.118;27.258;2023-11-18T01:15:13;100131.84;;;9.51;100.00
6565;BME280;3316;44.118;27.258;2023-11-18T01:17:39;100130.06;;;9.52;100.00
6565;BME280;3316;44.118;27.258;2023-11-18T01:20:06;100134.31;;;9.62;100.00
6565;BME280;3316;44.118;27.258;2023-11-18T01:22:39;100139.59;;;9.59;100.00
6565;BME280;3316;44.118;27.258;2023-11-18T01:25:06;100141.34;;;9.61;100.00
6565;BME280;3316;44.118;27.258;2023-11-18T01:27:33;100133.47;;;9.61;100.00
6565;BME280;3316;44.118;27.258;2023-11-18T01:29:59;100143.19;;;9.52;100.00
6565;BME280;3316;44.118;27.258;2023-11-18T01:32:25;100136.34;;;9.40;100.00
6565;BME280;3316;44.118;27.258;2023-11-18T01:34:51;100123.22;;;9.42;100.00
6565;BME280;3316;44.118;27.258;2023-11-18T01:37:16;100138.06;;;9.44;100.00
6565;BME280;3316;44.118;27.258;2023-11-18T01:39:42;100137.16;;;9.47;100.00
6565;BME280;3316;44.118;27.258;2023-11-18T01:42:08;100131.09;;;9.43;100.00
6565;BME280;3316;44.118;27.258;2023-11-18T01:44:33;100129.31;;;9.42;100.00
6565;BME280;3316;44.118;27.258;2023-11-18T01:47:02;100093.66;;;9.28;100.00
6565;BME280;3316;44.118;27.258;2023-11-18T01:49:31;100144.91;;;9.54;100.00
6565;BME280;3316;44.118;27.258;2023-11-18T01:51:57;100130.03;;;9.55;100.00
6565;BME280;3316;44.118;27.258;2023-11-18T01:54:26;100138.75;;;9.57;100.00
6565;BME280;3316;44.118;27.258;2023-11-18T01:56:53;100132.69;;;9.52;100.00
6565;BME280;3316;44.118;27.258;2023-11-18T01:59:18;100129.22;;;9.51;100.00
6565;BME280;3316;44.118;27.258;2023-11-18T02:01:47;100135.38;;;9.49;100.00
6565;BME280;3316;44.118;27.258;2023-11-18T02:04:14;100123.34;;;9.33;100.00
6565;BME280;3316;44.118;27.258;2023-11-18T02:06:40;100113.66;;;9.38;100.00
6565;BME280;3316;44.118;27.258;2023-11-18T02:09:07;100111.00;;;9.39;100.00
6565;BME280;3316;44.118;27.258;2023-11-18T02:12:00;100123.22;;;9.42;100.00
6565;BME280;3316;44.118;27.258;2023-11-18T02:14:27;100119.78;;;9.37;100.00
6565;BME280;3316;44.118;27.258;2023-11-18T02:16:55;100117.13;;;9.38;100.00
6565;BME280;3316;44.118;27.258;2023-11-18T02:19:24;100118.91;;;9.36;100.00
6565;BME280;3316;44.118;27.258;2023-11-18T02:21:52;100116.16;;;9.45;100.00
6565;BME280;3316;44.118;27.258;2023-11-18T02:24:30;100099.59;;;9.40;100.00
6565;BME280;3316;44.118;27.258;2023-11-18T02:26:59;100110.84;;;9.50;100.00
6565;BME280;3316;44.118;27.258;2023-11-18T02:29:27;100100.53;;;9.36;100.00
6565;BME280;3316;44.118;27.258;2023-11-18T02:31:58;100096.25;;;9.29;100.00
6565;BME280;3316;44.118;27.258;2023-11-18T02:34:30;100108.41;;;9.38;100.00
6565;BME280;3316;44.118;27.258;2023-11-18T02:36:58;100108.44;;;9.35;100.00
6565;BME280;3316;44.118;27.258;2023-11-18T02:39:42;100078.03;;;9.17;100.00
6565;BME280;3316;44.118;27.258;2023-11-18T02:42:09;100083.13;;;9.29;100.00
6565;BME280;3316;44.118;27.258;2023-11-18T02:44:36;100078.69;;;9.36;100.00
6565;BME280;3316;44.118;27.258;2023-11-18T02:47:03;100080.41;;;9.37;100.00
6565;BME280;3316;44.118;27.258;2023-11-18T02:49:31;100074.25;;;9.39;100.00
6565;BME280;3316;44.118;27.258;2023-11-18T02:51:56;100081.31;;;9.36;100.00
6565;BME280;3316;44.118;27.258;2023-11-18T02:54:22;100069.09;;;9.32;100.00
6565;BME280;3316;44.118;27.258;2023-11-18T02:56:48;100011.94;;;8.91;100.00
6565;BME280;3316;44.118;27.258;2023-11-18T02:59:14;100070.91;;;9.27;100.00
6565;BME280;3316;44.118;27.258;2023-11-18T03:01:39;100074.38;;;9.32;100.00
6565;BME280;3316;44.118;27.258;2023-11-18T03:04:05;100070.91;;;9.28;100.00
6565;BME280;3316;44.118;27.258;2023-11-18T03:06:31;100077.84;;;9.34;100.00
6565;BME280;3316;44.118;27.258;2023-11-18T03:08:58;100090.13;;;9.30;100.00
6565;BME280;3316;44.118;27.258;2023-11-18T03:11:24;100101.56;;;9.26;100.00
6565;BME280;3316;44.118;27.258;2023-11-18T03:13:49;100078.13;;;9.11;100.00
6565;BME280;3316;44.118;27.258;2023-11-18T03:16:15;100084.16;;;9.19;100.00
6565;BME280;3316;44.118;27.258;2023-11-18T03:18:42;100078.06;;;9.16;100.00
6565;BME280;3316;44.118;27.258;2023-11-18T03:21:12;100072.09;;;9.06;100.00
6565;BME280;3316;44.118;27.258;2023-11-18T03:23:38;100074.66;;;9.11;100.00
6565;BME280;3316;44.118;27.258;2023-11-18T03:26:04;100021.63;;;8.86;100.00
6565;BME280;3316;44.118;27.258;2023-11-18T03:28:30;100022.44;;;8.91;100.00
6565;BME280;3316;44.118;27.258;2023-11-18T03:30:56;100077.13;;;9.21;100.00
6565;BME280;3316;44.118;27.258;2023-11-18T03:33:22;100061.44;;;9.18;100.00
6565;BME280;3316;44.118;27.258;2023-11-18T03:35:47;100073.56;;;9.25;100.00
6565;BME280;3316;44.118;27.258;2023-11-18T03:38:13;100070.16;;;9.17;100.00
6565;BME280;3316;44.118;27.258;2023-11-18T03:40:40;100072.69;;;9.26;100.00
6565;BME280;3316;44.118;27.258;2023-11-18T03:43:07;100072.69;;;9.25;100.00
6565;BME280;3316;44.118;27.258;2023-11-18T03:45:33;100079.72;;;9.24;100.00
6565;BME280;3316;44.118;27.258;2023-11-18T03:47:58;100072.75;;;9.22;100.00
6565;BME280;3316;44.118;27.258;2023-11-18T03:50:26;100049.41;;;9.02;100.00
6565;BME280;3316;44.118;27.258;2023-11-18T03:52:51;100086.81;;;9.18;100.00
6565;BME280;3316;44.118;27.258;2023-11-18T03:55:17;100081.56;;;9.18;100.00
6565;BME280;3316;44.118;27.258;2023-11-18T03:57:43;100083.31;;;9.17;100.00
6565;BME280;3316;44.118;27.258;2023-11-18T04:00:11;100098.97;;;9.23;100.00
6565;BME280;3316;44.118;27.258;2023-11-18T04:02:37;100098.19;;;9.15;100.00
6565;BME280;3316;44.118;27.258;2023-11-18T04:05:05;100097.34;;;9.15;100.00
6565;BME280;3316;44.118;27.258;2023-11-18T04:07:31;100102.69;;;9.09;100.00
6565;BME280;3316;44.118;27.258;2023-11-18T04:09:56;100103.44;;;9.17;100.00
6565;BME280;3316;44.118;27.258;2023-11-18T04:12:22;100101.56;;;9.25;100.00
6565;BME280;3316;44.118;27.258;2023-11-18T04:14:49;100059.09;;;8.97;100.00
6565;BME280;3316;44.118;27.258;2023-11-18T04:17:14;100089.47;;;9.15;100.00
6565;BME280;3316;44.118;27.258;2023-11-18T04:19:40;100101.63;;;9.22;100.00
6565;BME280;3316;44.118;27.258;2023-11-18T04:22:06;100084.28;;;9.10;100.00
6565;BME280;3316;44.118;27.258;2023-11-18T04:24:32;100094.81;;;9.09;100.00
6565;BME280;3316;44.118;27.258;2023-11-18T04:26:57;100103.47;;;9.14;100.00
6565;BME280;3316;44.118;27.258;2023-11-18T04:29:22;100096.47;;;9.14;100.00
6565;BME280;3316;44.118;27.258;2023-11-18T04:31:48;100093.88;;;9.13;100.00
6565;BME280;3316;44.118;27.258;2023-11-18T04:34:14;100073.06;;;8.99;100.00
6565;BME280;3316;44.118;27.258;2023-11-18T04:36:41;100066.03;;;9.01;100.00
6565;BME280;3316;44.118;27.258;2023-11-18T04:39:06;100052.03;;;9.02;100.00
6565;BME280;3316;44.118;27.258;2023-11-18T04:41:32;100046.75;;;9.04;100.00
6565;BME280;3316;44.118;27.258;2023-11-18T04:43:58;100061.56;;;9.08;100.00
6565;BME280;3316;44.118;27.258;2023-11-18T04:46:23;100056.38;;;9.05;100.00
6565;BME280;3316;44.118;27.258;2023-11-18T04:48:49;100057.28;;;9.02;100.00
6565;BME280;3316;44.118;27.258;2023-11-18T04:51:14;100055.44;;;9.09;100.00
6565;BME280;3316;44.118;27.258;2023-11-18T04:53:40;100046.69;;;9.08;100.00
6565;BME280;3316;44.118;27.258;2023-11-18T04:56:05;100048.44;;;9.08;100.00
6565;BME280;3316;44.118;27.258;2023-11-18T05:01:02;100058.16;;;9.01;100.00
6565;BME280;3316;44.118;27.258;2023-11-18T05:03:28;100052.06;;;8.97;100.00
6565;BME280;3316;44.118;27.258;2023-11-18T05:05:53;100040.78;;;8.92;100.00
6565;BME280;3316;44.118;27.258;2023-11-18T05:08:20;100034.72;;;8.87;100.00
6565;BME280;3316;44.118;27.258;2023-11-18T05:10:47;100021.72;;;8.78;100.00
6565;BME280;3316;44.118;27.258;2023-11-18T05:13:12;100030.31;;;8.91;100.00
6565;BME280;3316;44.118;27.258;2023-11-18T05:15:42;100028.56;;;8.90;100.00
6565;BME280;3316;44.118;27.258;2023-11-18T05:18:08;100018.03;;;8.93;100.00
6565;BME280;3316;44.118;27.258;2023-11-18T05:20:36;100009.50;;;8.76;100.00
6565;BME280;3316;44.118;27.258;2023-11-18T05:23:02;100000.91;;;8.68;100.00
6565;BME280;3316;44.118;27.258;2023-11-18T05:25:28;100011.28;;;8.75;100.00
6565;BME280;3316;44.118;27.258;2023-11-18T05:27:54;100008.69;;;8.72;100.00
6565;BME280;3316;44.118;27.258;2023-11-18T05:30:19;100010.44;;;8.73;100.00
6565;BME280;3316;44.118;27.258;2023-11-18T05:32:45;100023.53;;;8.72;100.00
6565;BME280;3316;44.118;27.258;2023-11-18T05:35:10;100031.41;;;8.73;100.00
6565;BME280;3316;44.118;27.258;2023-11-18T05:37:37;99988.88;;;8.50;100.00
6565;BME280;3316;44.118;27.258;2023-11-18T05:40:05;100033.13;;;8.77;100.00
6565;BME280;3316;44.118;27.258;2023-11-18T05:42:34;100031.19;;;8.90;100.00
6565;BME280;3316;44.118;27.258;2023-11-18T05:45:07;100050.41;;;8.92;100.00
6565;BME280;3316;44.118;27.258;2023-11-18T05:47:33;100058.28;;;8.92;100.00
6565;BME280;3316;44.118;27.258;2023-11-18T05:50:00;100056.56;;;8.91;100.00
6565;BME280;3316;44.118;27.258;2023-11-18T05:52:25;100050.50;;;8.84;100.00
6565;BME280;3316;44.118;27.258;2023-11-18T05:54:51;100046.06;;;8.88;100.00
6565;BME280;3316;44.118;27.258;2023-11-18T05:57:17;100033.00;;;8.85;100.00
6565;BME280;3316;44.118;27.258;2023-11-18T05:59:43;100036.34;;;8.96;100.00
6565;BME280;3316;44.118;27.258;2023-11-18T06:02:09;100040.72;;;8.97;100.00
6565;BME280;3316;44.118;27.258;2023-11-18T06:04:38;100032.09;;;8.89;100.00
6565;BME280;3316;44.118;27.258;2023-11-18T06:07:04;100027.75;;;8.86;100.00
6565;BME280;3316;44.118;27.258;2023-11-18T06:09:30;100024.22;;;8.89;100.00
6565;BME280;3316;44.118;27.258;2023-11-18T06:11:55;100040.88;;;8.85;100.00
6565;BME280;3316;44.118;27.258;2023-11-18T06:14:21;99991.41;;;8.58;100.00
6565;BME280;3316;44.118;27.258;2023-11-18T06:16:49;100020.78;;;8.84;100.00
6565;BME280;3316;44.118;27.258;2023-11-18T06:19:16;100018.19;;;8.81;100.00
6565;BME280;3316;44.118;27.258;2023-11-18T06:21:41;100013.81;;;8.83;100.00
6565;BME280;3316;44.118;27.258;2023-11-18T06:24:07;99979.94;;;8.65;100.00
6565;BME280;3316;44.118;27.258;2023-11-18T06:26:33;100012.09;;;8.79;100.00
6565;BME280;3316;44.118;27.258;2023-11-18T06:29:01;100008.59;;;8.81;100.00
6565;BME280;3316;44.118;27.258;2023-11-18T06:31:27;100031.06;;;9.01;100.00
6565;BME280;3316;44.118;27.258;2023-11-18T06:33:54;100031.94;;;8.98;100.00
6565;BME280;3316;44.118;27.258;2023-11-18T06:36:20;100029.41;;;8.92;100.00
6565;BME280;3316;44.118;27.258;2023-11-18T06:38:47;100025.19;;;8.80;100.00
6565;BME280;3316;44.118;27.258;2023-11-18T06:41:15;100040.88;;;8.85;100.00
6565;BME280;3316;44.118;27.258;2023-11-18T06:43:43;100046.84;;;8.96;100.00
6565;BME280;3316;44.118;27.258;2023-11-18T06:46:32;100046.16;;;8.83;100.00
6565;BME280;3316;44.118;27.258;2023-11-18T06:49:00;100037.44;;;8.81;100.00
6565;BME280;3316;44.118;27.258;2023-11-18T06:51:30;100052.34;;;8.76;100.00
6565;BME280;3316;44.118;27.258;2023-11-18T06:53:57;100001.13;;;8.47;100.00
6565;BME280;3316;44.118;27.258;2023-11-18T06:56:23;99995.88;;;8.47;100.00
6565;BME280;3316;44.118;27.258;2023-11-18T06:58:49;100068.81;;;8.89;100.00
6565;BME280;3316;44.118;27.258;2023-11-18T07:01:15;100071.34;;;8.96;100.00
6565;BME280;3316;44.118;27.258;2023-11-18T07:03:42;100077.34;;;9.03;100.00
6565;BME280;3316;44.118;27.258;2023-11-18T07:06:08;100060.88;;;8.95;100.00
6565;BME280;3316;44.118;27.258;2023-11-18T07:08:37;100034.09;;;8.69;100.00
6565;BME280;3316;44.118;27.258;2023-11-18T07:11:04;100068.75;;;8.92;100.00
6565;BME280;3316;44.118;27.258;2023-11-18T07:13:31;100067.13;;;8.82;100.00
6565;BME280;3316;44.118;27.258;2023-11-18T07:15:59;100071.56;;;8.78;100.00
6565;BME280;3316;44.118;27.258;2023-11-18T07:18:24;100057.69;;;8.69;100.00
6565;BME280;3316;44.118;27.258;2023-11-18T07:20:50;100070.69;;;8.78;100.00
6565;BME280;3316;44.118;27.258;2023-11-18T07:23:19;100059.25;;;8.85;100.00
6565;BME280;3316;44.118;27.258;2023-11-18T07:25:45;100061.91;;;8.80;100.00
6565;BME280;3316;44.118;27.258;2023-11-18T07:28:13;100044.56;;;8.70;100.00
6565;BME280;3316;44.118;27.258;2023-11-18T07:30:43;100054.94;;;8.79;100.00
6565;BME280;3316;44.118;27.258;2023-11-18T07:33:16;100048.94;;;8.68;100.00
6565;BME280;3316;44.118;27.258;2023-11-18T07:35:45;100045.31;;;8.78;100.00
6565;BME280;3316;44.118;27.258;2023-11-18T07:38:12;100016.78;;;8.54;100.00
6565;BME280;3316;44.118;27.258;2023-11-18T07:40:38;99956.03;;;8.18;100.00
6565;BME280;3316;44.118;27.258;2023-11-18T07:43:10;100010.66;;;8.55;100.00
6565;BME280;3316;44.118;27.258;2023-11-18T07:45:37;100011.56;;;8.51;100.00
6565;BME280;3316;44.118;27.258;2023-11-18T07:48:07;100018.59;;;8.49;100.00
6565;BME280;3316;44.118;27.258;2023-11-18T07:50:36;100010.88;;;8.37;100.00
6565;BME280;3316;44.118;27.258;2023-11-18T07:53:02;100002.97;;;8.39;100.00
6565;BME280;3316;44.118;27.258;2023-11-18T07:55:29;100017.19;;;8.13;100.00
6565;BME280;3316;44.118;27.258;2023-11-18T07:57:55;100019.97;;;7.98;100.00
6565;BME280;3316;44.118;27.258;2023-11-18T08:00:20;100001.75;;;7.89;100.00
6565;BME280;3316;44.118;27.258;2023-11-18T08:02:46;100001.75;;;7.88;100.00
6565;BME280;3316;44.118;27.258;2023-11-18T08:05:12;100023.63;;;7.82;100.00
6565;BME280;3316;44.118;27.258;2023-11-18T08:07:43;100037.69;;;7.71;100.00
6565;BME280;3316;44.118;27.258;2023-11-18T08:10:10;100029.84;;;7.69;100.00
6565;BME280;3316;44.118;27.258;2023-11-18T08:12:38;100026.41;;;7.64;100.00
6565;BME280;3316;44.118;27.258;2023-11-18T08:15:04;100030.75;;;7.65;100.00
6565;BME280;3316;44.118;27.258;2023-11-18T08:17:31;100028.19;;;7.62;100.00
6565;BME280;3316;44.118;27.258;2023-11-18T08:19:57;100025.63;;;7.55;100.00
6565;BME280;3316;44.118;27.258;2023-11-18T08:22:23;99977.00;;;7.25;100.00
6565;BME280;3316;44.118;27.258;2023-11-18T08:24:49;100019.50;;;7.56;100.00
6565;BME280;3316;44.118;27.258;2023-11-18T08:27:15;100014.31;;;7.45;100.00
6565;BME280;3316;44.118;27.258;2023-11-18T08:29:41;99999.59;;;7.37;100.00
6565;BME280;3316;44.118;27.258;2023-11-18T08:32:06;100007.47;;;7.32;100.00
6565;BME280;3316;44.118;27.258;2023-11-18T08:34:35;99990.91;;;7.29;100.00
6565;BME280;3316;44.118;27.258;2023-11-18T08:37:05;100014.44;;;7.33;100.00
6565;BME280;3316;44.118;27.258;2023-11-18T08:39:31;100028.38;;;7.32;100.00
6565;BME280;3316;44.118;27.258;2023-11-18T08:41:58;100024.94;;;7.27;100.00
6565;BME280;3316;44.118;27.258;2023-11-18T08:44:23;100024.09;;;7.22;100.00
6565;BME280;3316;44.118;27.258;2023-11-18T08:46:50;100025.81;;;7.26;100.00
6565;BME280;3316;44.118;27.258;2023-11-18T08:49:17;100034.56;;;7.25;100.00
6565;BME280;3316;44.118;27.258;2023-11-18T08:51:47;100027.59;;;7.18;100.00
6565;BME280;3316;44.118;27.258;2023-11-18T08:54:15;100044.19;;;7.22;100.00
6565;BME280;3316;44.118;27.258;2023-11-18T08:56:54;100026.66;;;7.33;100.00
6565;BME280;3316;44.118;27.258;2023-11-18T08:59:23;100024.91;;;7.33;100.00
6565;BME280;3316;44.118;27.258;2023-11-18T09:01:56;100023.19;;;7.29;100.00
6565;BME280;3316;44.118;27.258;2023-11-18T09:04:25;100041.41;;;7.44;100.00
6565;BME280;3316;44.118;27.258;2023-11-18T09:06:53;100045.81;;;7.39;100.00
6565;BME280;3316;44.118;27.258;2023-11-18T09:09:22;100042.38;;;7.31;100.00
6565;BME280;3316;44.118;27.258;2023-11-18T09:11:56;100040.69;;;7.16;100.00
6565;BME280;3316;44.118;27.258;2023-11-18T09:14:25;100031.09;;;7.20;100.00
6565;BME280;3316;44.118;27.258;2023-11-18T09:16:54;100030.22;;;7.21;100.00
6565;BME280;3316;44.118;27.258;2023-11-18T09:19:25;99998.94;;;7.03;100.00
6565;BME280;3316;44.118;27.258;2023-11-18T09:21:50;100026.69;;;7.27;100.00
6565;BME280;3316;44.118;27.258;2023-11-18T09:24:19;99989.31;;;7.09;100.00
6565;BME280;3316;44.118;27.258;2023-11-18T09:26:46;100008.38;;;7.27;100.00
6565;BME280;3316;44.118;27.258;2023-11-18T09:29:18;100019.75;;;7.21;100.00
6565;BME280;3316;44.118;27.258;2023-11-18T09:31:46;100014.53;;;7.16;100.00
6565;BME280;3316;44.118;27.258;2023-11-18T09:34:14;99949.38;;;6.82;100.00
6565;BME280;3316;44.118;27.258;2023-11-18T09:36:45;100001.47;;;7.15;100.00
6565;BME280;3316;44.118;27.258;2023-11-18T09:39:13;100019.78;;;7.15;100.00
6565;BME280;3316;44.118;27.258;2023-11-18T09:41:55;100027.63;;;7.15;100.00
6565;BME280;3316;44.118;27.258;2023-11-18T09:44:22;100052.03;;;7.18;100.00
6565;BME280;3316;44.118;27.258;2023-11-18T09:46:54;100034.56;;;7.20;100.00
6565;BME280;3316;44.118;27.258;2023-11-18T09:49:32;100043.31;;;7.19;100.00
6565;BME280;3316;44.118;27.258;2023-11-18T09:52:05;100058.13;;;7.20;100.00
6565;BME280;3316;44.118;27.258;2023-11-18T09:55:08;100053.84;;;7.04;100.00
6565;BME280;3316;44.118;27.258;2023-11-18T09:57:44;100063.38;;;7.19;100.00
6565;BME280;3316;44.118;27.258;2023-11-18T10:00:15;100073.84;;;7.19;100.00
6565;BME280;3316;44.118;27.258;2023-11-18T10:02:58;100067.66;;;7.26;100.00
6565;BME280;3316;44.118;27.258;2023-11-18T10:05:26;100057.25;;;7.20;100.00
6565;BME280;3316;44.118;27.258;2023-11-18T10:07:53;100067.63;;;7.34;100.00
6565;BME280;3316;44.118;27.258;2023-11-18T10:10:19;100058.00;;;7.40;100.00
6565;BME280;3316;44.118;27.258;2023-11-18T10:12:50;100053.56;;;7.50;100.00
6565;BME280;3316;44.118;27.258;2023-11-18T10:15:23;100048.41;;;7.38;100.00
6565;BME280;3316;44.118;27.258;2023-11-18T10:17:51;100047.59;;;7.30;100.00
6565;BME280;3316;44.118;27.258;2023-11-18T10:20:22;100038.03;;;7.27;100.00
6565;BME280;3316;44.118;27.258;2023-11-18T10:23:06;100037.13;;;7.31;100.00
6565;BME280;3316;44.118;27.258;2023-11-18T10:25:36;100034.59;;;7.14;100.00
6565;BME280;3316;44.118;27.258;2023-11-18T10:28:06;100033.81;;;7.02;100.00
6565;BME280;3316;44.118;27.258;2023-11-18T10:30:32;100025.94;;;7.08;100.00
6565;BME280;3316;44.118;27.258;2023-11-18T10:32:59;100023.44;;;6.90;100.00
6565;BME280;3316;44.118;27.258;2023-11-18T10:35:34;100013.81;;;6.93;100.00
6565;BME280;3316;44.118;27.258;2023-11-18T10:38:03;100019.00;;;7.04;100.00
6565;BME280;3316;44.118;27.258;2023-11-18T10:40:32;100012.91;;;6.97;100.00
6565;BME280;3316;44.118;27.258;2023-11-18T10:43:03;100005.13;;;6.90;100.00
6565;BME280;3316;44.118;27.258;2023-11-18T10:45:34;100001.59;;;6.95;100.00
6565;BME280;3316;44.118;27.258;2023-11-18T10:48:05;100006.88;;;6.88;100.00
6565;BME280;3316;44.118;27.258;2023-11-18T10:50:31;100021.72;;;6.86;100.00
6565;BME280;3316;44.118;27.258;2023-11-18T10:53:00;100011.28;;;6.80;100.00
6565;BME280;3316;44.118;27.258;2023-11-18T10:55:39;100029.63;;;6.69;100.00
6565;BME280;3316;44.118;27.258;2023-11-18T10:58:08;100042.59;;;6.87;100.00
6565;BME280;3316;44.118;27.258;2023-11-18T11:00:51;100043.53;;;6.77;100.00
6565;BME280;3316;44.118;27.258;2023-11-18T11:03:21;100009.66;;;6.55;100.00
6565;BME280;3316;44.118;27.258;2023-11-18T11:05:49;100034.06;;;6.55;100.00
6565;BME280;3316;44.118;27.258;2023-11-18T11:08:15;100045.38;;;6.54;100.00
6565;BME280;3316;44.118;27.258;2023-11-18T11:10:43;100007.97;;;6.34;100.00
6565;BME280;3316;44.118;27.258;2023-11-18T11:13:10;100020.97;;;6.55;100.00
6565;BME280;3316;44.118;27.258;2023-11-18T11:15:43;99981.88;;;6.28;100.00
6565;BME280;3316;44.118;27.258;2023-11-18T11:18:20;99987.06;;;6.34;100.00
6565;BME280;3316;44.118;27.258;2023-11-18T11:29:01;100000.22;;;6.11;100.00
6565;BME280;3316;44.118;27.258;2023-11-18T11:31:35;100010.69;;;6.04;100.00
6565;BME280;3316;44.118;27.258;2023-11-18T11:34:02;100026.34;;;6.05;100.00
6565;BME280;3316;44.118;27.258;2023-11-18T11:36:35;100022.88;;;5.91;100.00
6565;BME280;3316;44.118;27.258;2023-11-18T11:39:03;100029.84;;;5.77;100.00
6565;BME280;3316;44.118;27.258;2023-11-18T11:41:32;100071.63;;;5.94;100.00
6565;BME280;3316;44.118;27.258;2023-11-18T11:43:59;100075.06;;;6.05;100.00
6565;BME280;3316;44.118;27.258;2023-11-18T11:46:27;100070.75;;;5.95;100.00
6565;BME280;3316;44.118;27.258;2023-11-18T11:49:01;100086.41;;;5.87;100.00
6565;BME280;3316;44.118;27.258;2023-11-18T11:52:07;100064.63;;;5.70;100.00
6565;BME280;3316;44.118;27.258;2023-11-18T11:54:35;100070.72;;;5.77;100.00
6565;BME280;3316;44.118;27.258;2023-11-18T11:57:03;100092.47;;;5.82;100.00
6565;BME280;3316;44.118;27.258;2023-11-18T12:02:20;100082.88;;;5.78;100.00
6565;BME280;3316;44.118;27.258;2023-11-18T12:04:50;100097.69;;;5.73;100.00
6565;BME280;3316;44.118;27.258;2023-11-18T12:07:20;100082.03;;;5.52;100.00
6565;BME280;3316;44.118;27.258;2023-11-18T12:09:49;100086.34;;;5.47;100.00
6565;BME280;3316;44.118;27.258;2023-11-18T12:12:20;100090.72;;;5.70;100.00
6565;BME280;3316;44.118;27.258;2023-11-18T12:14:54;100088.97;;;5.54;100.00
6565;BME280;3316;44.118;27.258;2023-11-18T12:17:23;100092.47;;;5.52;100.00
6565;BME280;3316;44.118;27.258;2023-11-18T12:19:50;100065.47;;;5.48;100.00
6565;BME280;3316;44.118;27.258;2023-11-18T12:22:25;100079.44;;;5.58;100.00
6565;BME280;3316;44.118;27.258;2023-11-18T12:35:22;100038.50;;;5.13;100.00
6565;BME280;3316;44.118;27.258;2023-11-18T12:40:56;100042.84;;;5.12;100.00
6565;BME280;3316;44.118;27.258;2023-11-18T12:43:47;100055.88;;;5.21;100.00
6565;BME280;3316;44.118;27.258;2023-11-18T12:49:04;100048.91;;;5.14;100.00
6565;BME280;3316;44.118;27.258;2023-11-18T12:51:32;100047.19;;;5.16;100.00
6565;BME280;3316;44.118;27.258;2023-11-18T12:54:01;100055.88;;;5.11;100.00
6565;BME280;3316;44.118;27.258;2023-11-18T12:56:28;100042.81;;;5.09;100.00
6565;BME280;3316;44.118;27.258;2023-11-18T12:58:55;100051.50;;;5.01;100.00
6565;BME280;3316;44.118;27.258;2023-11-18T13:01:21;100048.88;;;4.98;100.00
6565;BME280;3316;44.118;27.258;2023-11-18T13:03:47;100029.72;;;4.90;100.00
6565;BME280;3316;44.118;27.258;2023-11-18T13:06:13;100044.53;;;5.00;100.00
6565;BME280;3316;44.118;27.258;2023-11-18T13:08:40;100048.88;;;4.98;100.00
6565;BME280;3316;44.118;27.258;2023-11-18T13:11:05;100037.53;;;4.81;100.00
6565;BME280;3316;44.118;27.258;2023-11-18T13:13:38;100047.09;;;4.83;100.00
6565;BME280;3316;44.118;27.258;2023-11-18T13:16:05;99978.34;;;4.43;100.00
6565;BME280;3316;44.118;27.258;2023-11-18T13:18:44;100032.28;;;4.75;100.00
6565;BME280;3316;44.118;27.258;2023-11-18T13:21:14;100030.59;;;4.80;100.00
6565;BME280;3316;44.118;27.258;2023-11-18T13:23:41;100021.00;;;4.80;100.00
6565;BME280;3316;44.118;27.258;2023-11-18T13:26:07;100025.34;;;4.75;100.00
6565;BME280;3316;44.118;27.258;2023-11-18T13:28:35;100047.91;;;4.76;100.00
6565;BME280;3316;44.118;27.258;2023-11-18T13:31:00;100007.88;;;4.45;100.00
6565;BME280;3316;44.118;27.258;2023-11-18T13:33:26;100033.13;;;4.63;100.00
6565;BME280;3316;44.118;27.258;2023-11-18T13:35:52;100062.72;;;4.80;100.00